KCRX/CRX METAR and TAF weather

Enter ICAO airport designator
Station Type Date Time Source
KCRX METAR 2019/08/21 22:35 UTC NOAA

KCRX 212235Z AUTO 21007KT 10SM CLR 32/21 A2998 RMK AO2


Station Type Date Time Source
KCRX Decoded METAR 2019/08/21 22:35 UTC NOAA

Station name not available
Aug 21, 2019 - 06:35 PM EDT / 2019.08.21 2235 UTC
Wind: from the SSW (210 degrees) at 8 MPH (7 KT):0
Visibility: 10 mile(s):0
Sky conditions: clear
Temperature: 89 F (32 C)
Dew Point: 69 F (21 C)
Relative Humidity: 52%
Pressure (altimeter): 29.98 in. Hg (1015 hPa)
ob: KCRX 212235Z AUTO 21007KT 10SM CLR 32/21 A2998 RMK AO2
cycle: 22

Station Type Date Time Source
KCRX TAF UTC NOAA

Error!

Example: see airport list